sensor_id;sensor_type;location;lat;lon;timestamp;pressure;altitude;pressure_sealevel;temperature;humidity
63351;BME280;64988;51.058;17.040;2023-01-30T00:05:03;100163.50;;;-0.70;73.09
63351;BME280;64988;51.058;17.040;2023-01-30T00:10:32;100153.16;;;-0.77;73.77
63351;BME280;64988;51.058;17.040;2023-01-30T00:15:59;100139.19;;;-0.81;73.96
63351;BME280;64988;51.058;17.040;2023-01-30T00:21:26;100132.41;;;-0.89;74.54
63351;BME280;64988;51.058;17.040;2023-01-30T00:26:54;100126.44;;;-0.96;74.74
63351;BME280;64988;51.058;17.040;2023-01-30T00:32:21;100112.84;;;-1.10;74.65
63351;BME280;64988;51.058;17.040;2023-01-30T00:37:49;100109.81;;;-1.26;75.37
63351;BME280;64988;51.058;17.040;2023-01-30T00:43:18;100091.81;;;-1.41;75.07
63351;BME280;64988;51.058;17.040;2023-01-30T00:49:04;100066.88;;;-1.60;76.02
63351;BME280;64988;51.058;17.040;2023-01-30T00:54:31;100062.81;;;-1.70;76.09
63351;BME280;64988;51.058;17.040;2023-01-30T00:59:58;100043.81;;;-1.81;76.73
63351;BME280;64988;51.058;17.040;2023-01-30T01:05:25;100032.44;;;-1.85;77.80
63351;BME280;64988;51.058;17.040;2023-01-30T01:10:53;100027.19;;;-1.86;77.64
63351;BME280;64988;51.058;17.040;2023-01-30T01:16:22;100016.13;;;-1.97;77.66
63351;BME280;64988;51.058;17.040;2023-01-30T01:21:50;100016.38;;;-2.05;78.32
63351;BME280;64988;51.058;17.040;2023-01-30T01:27:17;100008.53;;;-2.08;78.26
63351;BME280;64988;51.058;17.040;2023-01-30T01:32:45;100003.03;;;-2.02;78.36
63351;BME280;64988;51.058;17.040;2023-01-30T01:38:13;99976.03;;;-1.85;79.47
63351;BME280;64988;51.058;17.040;2023-01-30T01:44:08;99973.41;;;-1.61;79.57
63351;BME280;64988;51.058;17.040;2023-01-30T01:49:38;99971.63;;;-1.35;78.97
63351;BME280;64988;51.058;17.040;2023-01-30T01:55:08;99950.25;;;-1.06;78.56
63351;BME280;64988;51.058;17.040;2023-01-30T02:00:36;99946.72;;;-0.83;77.80
63351;BME280;64988;51.058;17.040;2023-01-30T02:06:05;99936.13;;;-0.60;77.68
63351;BME280;64988;51.058;17.040;2023-01-30T02:11:42;99927.25;;;-0.37;76.97
63351;BME280;64988;51.058;17.040;2023-01-30T02:17:11;99915.97;;;-0.21;75.66
63351;BME280;64988;51.058;17.040;2023-01-30T02:23:02;99898.53;;;-0.06;74.97
63351;BME280;64988;51.058;17.040;2023-01-30T02:46:03;99829.38;;;0.19;72.71
63351;BME280;64988;51.058;17.040;2023-01-30T02:51:35;99819.50;;;0.22;73.28
63351;BME280;64988;51.058;17.040;2023-01-30T02:57:02;99812.25;;;0.26;72.96
63351;BME280;64988;51.058;17.040;2023-01-30T03:08:52;99772.84;;;0.17;72.48
63351;BME280;64988;51.058;17.040;2023-01-30T03:14:29;99782.94;;;0.29;72.84
63351;BME280;64988;51.058;17.040;2023-01-30T03:19:59;99773.59;;;0.39;73.02
63351;BME280;64988;51.058;17.040;2023-01-30T03:25:27;99777.53;;;0.49;72.44
63351;BME280;64988;51.058;17.040;2023-01-30T03:30:55;99748.19;;;0.52;72.32
63351;BME280;64988;51.058;17.040;2023-01-30T03:36:22;99745.03;;;0.63;72.58
63351;BME280;64988;51.058;17.040;2023-01-30T03:41:50;99731.63;;;0.66;72.67
63351;BME280;64988;51.058;17.040;2023-01-30T03:47:18;99730.47;;;0.71;72.64
63351;BME280;64988;51.058;17.040;2023-01-30T03:52:48;99701.41;;;0.68;72.43
63351;BME280;64988;51.058;17.040;2023-01-30T03:58:19;99702.69;;;0.78;72.86
63351;BME280;64988;51.058;17.040;2023-01-30T04:03:46;99695.50;;;0.80;71.23
63351;BME280;64988;51.058;17.040;2023-01-30T04:09:14;99692.63;;;0.85;68.18
63351;BME280;64988;51.058;17.040;2023-01-30T04:14:45;99673.44;;;0.97;67.08
63351;BME280;64988;51.058;17.040;2023-01-30T04:20:23;99649.75;;;1.10;66.90
63351;BME280;64988;51.058;17.040;2023-01-30T04:25:54;99609.75;;;1.13;65.54
63351;BME280;64988;51.058;17.040;2023-01-30T04:31:23;99606.13;;;1.14;65.28
63351;BME280;64988;51.058;17.040;2023-01-30T04:37:04;99578.84;;;1.10;64.40
63351;BME280;64988;51.058;17.040;2023-01-30T04:42:31;99572.44;;;1.14;64.29
63351;BME280;64988;51.058;17.040;2023-01-30T04:48:20;99548.28;;;1.19;64.61
63351;BME280;64988;51.058;17.040;2023-01-30T04:53:48;99542.44;;;1.29;64.72
63351;BME280;64988;51.058;17.040;2023-01-30T04:59:16;99520.03;;;1.33;65.67
63351;BME280;64988;51.058;17.040;2023-01-30T05:04:48;99513.69;;;1.36;66.26
63351;BME280;64988;51.058;17.040;2023-01-30T05:10:17;99515.16;;;1.41;66.62
63351;BME280;64988;51.058;17.040;2023-01-30T05:15:44;99516.81;;;1.44;67.05
63351;BME280;64988;51.058;17.040;2023-01-30T05:21:14;99506.09;;;1.45;67.12
63351;BME280;64988;51.058;17.040;2023-01-30T05:26:43;99505.72;;;1.36;66.69
63351;BME280;64988;51.058;17.040;2023-01-30T05:32:12;99492.59;;;1.33;67.13
63351;BME280;64988;51.058;17.040;2023-01-30T05:37:40;99491.44;;;1.21;67.04
63351;BME280;64988;51.058;17.040;2023-01-30T05:43:08;99477.41;;;1.19;67.79
63351;BME280;64988;51.058;17.040;2023-01-30T05:48:36;99469.50;;;1.18;68.35
63351;BME280;64988;51.058;17.040;2023-01-30T05:54:03;99468.28;;;1.23;68.15
63351;BME280;64988;51.058;17.040;2023-01-30T05:59:30;99452.13;;;1.28;66.85
63351;BME280;64988;51.058;17.040;2023-01-30T06:04:58;99430.50;;;1.34;66.32
63351;BME280;64988;51.058;17.040;2023-01-30T06:10:26;99427.50;;;1.40;65.98
63351;BME280;64988;51.058;17.040;2023-01-30T06:15:54;99421.34;;;1.55;65.84
63351;BME280;64988;51.058;17.040;2023-01-30T06:21:22;99416.19;;;1.68;66.04
63351;BME280;64988;51.058;17.040;2023-01-30T06:26:49;99433.44;;;1.76;66.16
63351;BME280;64988;51.058;17.040;2023-01-30T06:32:17;99429.31;;;1.86;66.13
63351;BME280;64988;51.058;17.040;2023-01-30T06:37:44;99418.31;;;1.92;65.43
63351;BME280;64988;51.058;17.040;2023-01-30T06:43:12;99391.34;;;1.98;65.19
63351;BME280;64988;51.058;17.040;2023-01-30T06:48:40;99385.47;;;2.07;65.03
63351;BME280;64988;51.058;17.040;2023-01-30T06:54:08;99383.03;;;2.19;65.42
63351;BME280;64988;51.058;17.040;2023-01-30T06:59:36;99381.75;;;2.26;64.86
63351;BME280;64988;51.058;17.040;2023-01-30T07:05:04;99369.59;;;2.36;64.53
63351;BME280;64988;51.058;17.040;2023-01-30T07:10:33;99348.84;;;2.41;64.17
63351;BME280;64988;51.058;17.040;2023-01-30T07:16:02;99360.84;;;2.48;64.64
63351;BME280;64988;51.058;17.040;2023-01-30T07:21:29;99365.63;;;2.57;64.77
63351;BME280;64988;51.058;17.040;2023-01-30T07:26:56;99371.16;;;2.68;63.40
63351;BME280;64988;51.058;17.040;2023-01-30T07:32:23;99362.00;;;2.72;64.14
63351;BME280;64988;51.058;17.040;2023-01-30T07:37:51;99361.44;;;2.81;64.59
63351;BME280;64988;51.058;17.040;2023-01-30T07:43:19;99351.16;;;2.75;65.94
63351;BME280;64988;51.058;17.040;2023-01-30T07:48:46;99340.88;;;2.69;68.22
63351;BME280;64988;51.058;17.040;2023-01-30T07:54:15;99343.75;;;2.52;72.84
63351;BME280;64988;51.058;17.040;2023-01-30T07:59:43;99337.47;;;2.39;72.21
63351;BME280;64988;51.058;17.040;2023-01-30T08:05:11;99336.78;;;2.35;72.35
63351;BME280;64988;51.058;17.040;2023-01-30T08:10:38;99328.19;;;2.30;71.53
63351;BME280;64988;51.058;17.040;2023-01-30T08:16:06;99316.59;;;2.31;71.09
63351;BME280;64988;51.058;17.040;2023-01-30T08:21:33;99303.31;;;2.45;70.37
63351;BME280;64988;51.058;17.040;2023-01-30T08:27:00;99297.41;;;2.69;68.68
63351;BME280;64988;51.058;17.040;2023-01-30T08:32:27;99279.69;;;2.96;68.03
63351;BME280;64988;51.058;17.040;2023-01-30T08:37:55;99268.66;;;3.14;67.29
63351;BME280;64988;51.058;17.040;2023-01-30T08:43:23;99262.09;;;3.47;66.90
63351;BME280;64988;51.058;17.040;2023-01-30T08:48:51;99262.53;;;3.53;67.48
63351;BME280;64988;51.058;17.040;2023-01-30T08:54:19;99247.69;;;3.49;68.02
63351;BME280;64988;51.058;17.040;2023-01-30T08:59:47;99241.59;;;3.47;68.50
63351;BME280;64988;51.058;17.040;2023-01-30T09:05:18;99251.16;;;3.64;68.93
63351;BME280;64988;51.058;17.040;2023-01-30T09:10:46;99253.53;;;3.81;68.92
63351;BME280;64988;51.058;17.040;2023-01-30T09:16:23;99246.72;;;4.02;69.50
63351;BME280;64988;51.058;17.040;2023-01-30T09:21:53;99240.00;;;4.09;68.96
63351;BME280;64988;51.058;17.040;2023-01-30T09:27:20;99231.44;;;4.04;68.46
63351;BME280;64988;51.058;17.040;2023-01-30T09:32:47;99239.44;;;4.04;67.74
63351;BME280;64988;51.058;17.040;2023-01-30T09:38:16;99232.31;;;4.17;67.42
63351;BME280;64988;51.058;17.040;2023-01-30T09:55:20;99206.25;;;4.21;68.96
63351;BME280;64988;51.058;17.040;2023-01-30T10:00:52;99204.97;;;4.14;70.93
63351;BME280;64988;51.058;17.040;2023-01-30T10:06:20;99203.34;;;4.24;73.18
63351;BME280;64988;51.058;17.040;2023-01-30T10:23:46;99186.78;;;3.56;77.58
63351;BME280;64988;51.058;17.040;2023-01-30T10:29:37;99183.66;;;3.49;78.47
63351;BME280;64988;51.058;17.040;2023-01-30T10:35:14;99172.69;;;3.54;78.34
63351;BME280;64988;51.058;17.040;2023-01-30T10:51:54;99139.41;;;3.72;78.29
63351;BME280;64988;51.058;17.040;2023-01-30T11:03:21;99135.81;;;4.35;77.15
63351;BME280;64988;51.058;17.040;2023-01-30T11:08:52;99111.78;;;4.71;75.87
63351;BME280;64988;51.058;17.040;2023-01-30T11:14:20;99111.81;;;5.06;75.22
63351;BME280;64988;51.058;17.040;2023-01-30T11:19:55;99110.09;;;5.40;74.41
63351;BME280;64988;51.058;17.040;2023-01-30T11:25:23;99106.84;;;5.36;72.92
63351;BME280;64988;51.058;17.040;2023-01-30T11:30:56;99083.47;;;5.38;73.24
63351;BME280;64988;51.058;17.040;2023-01-30T11:36:30;99085.25;;;5.61;72.91
63351;BME280;64988;51.058;17.040;2023-01-30T11:42:00;99074.03;;;5.67;72.27
63351;BME280;64988;51.058;17.040;2023-01-30T11:47:30;99071.34;;;5.78;72.96
63351;BME280;64988;51.058;17.040;2023-01-30T11:53:01;99043.28;;;5.84;72.17
63351;BME280;64988;51.058;17.040;2023-01-30T11:58:31;99031.44;;;5.75;71.41
63351;BME280;64988;51.058;17.040;2023-01-30T12:04:00;99029.66;;;5.65;71.50
63351;BME280;64988;51.058;17.040;2023-01-30T12:09:34;99023.78;;;5.60;71.81
63351;BME280;64988;51.058;17.040;2023-01-30T12:15:26;99016.25;;;5.54;72.50
63351;BME280;64988;51.058;17.040;2023-01-30T12:27:09;99017.56;;;5.37;73.01
63351;BME280;64988;51.058;17.040;2023-01-30T12:32:40;99020.63;;;5.55;73.59
63351;BME280;64988;51.058;17.040;2023-01-30T12:38:20;99014.53;;;5.64;73.25
63351;BME280;64988;51.058;17.040;2023-01-30T12:44:14;99013.56;;;5.54;72.50
63351;BME280;64988;51.058;17.040;2023-01-30T13:07:47;99022.28;;;6.33;69.28
63351;BME280;64988;51.058;17.040;2023-01-30T13:13:34;99031.44;;;6.31;67.73
63351;BME280;64988;51.058;17.040;2023-01-30T13:19:22;99012.31;;;6.24;68.90
63351;BME280;64988;51.058;17.040;2023-01-30T13:31:14;99037.81;;;5.97;68.74
63351;BME280;64988;51.058;17.040;2023-01-30T13:36:48;99044.59;;;5.78;70.42
63351;BME280;64988;51.058;17.040;2023-01-30T13:42:26;99037.31;;;6.14;69.75
63351;BME280;64988;51.058;17.040;2023-01-30T13:48:05;99031.34;;;6.96;69.50
63351;BME280;64988;51.058;17.040;2023-01-30T14:17:30;99030.44;;;7.69;64.35
63351;BME280;64988;51.058;17.040;2023-01-30T14:23:00;99040.16;;;7.70;62.93
63351;BME280;64988;51.058;17.040;2023-01-30T14:33:57;99050.34;;;7.46;63.54
63351;BME280;64988;51.058;17.040;2023-01-30T14:39:38;99061.53;;;7.09;63.66
63351;BME280;64988;51.058;17.040;2023-01-30T14:45:14;99062.81;;;6.94;63.92
63351;BME280;64988;51.058;17.040;2023-01-30T14:50:42;99058.72;;;6.79;64.38
63351;BME280;64988;51.058;17.040;2023-01-30T14:56:10;99049.06;;;6.56;64.55
63351;BME280;64988;51.058;17.040;2023-01-30T15:02:04;99045.19;;;6.38;64.59
63351;BME280;64988;51.058;17.040;2023-01-30T15:13:28;99056.94;;;6.03;65.45
63351;BME280;64988;51.058;17.040;2023-01-30T15:31:07;99049.72;;;5.81;66.19
63351;BME280;64988;51.058;17.040;2023-01-30T15:36:44;99059.56;;;5.70;66.63
63351;BME280;64988;51.058;17.040;2023-01-30T15:42:14;99065.66;;;5.61;66.51
63351;BME280;64988;51.058;17.040;2023-01-30T15:53:48;99055.28;;;5.45;67.19
63351;BME280;64988;51.058;17.040;2023-01-30T15:59:33;99053.09;;;5.39;67.07
63351;BME280;64988;51.058;17.040;2023-01-30T16:10:44;99073.50;;;5.40;67.15
63351;BME280;64988;51.058;17.040;2023-01-30T16:16:16;99066.47;;;5.39;66.98
63351;BME280;64988;51.058;17.040;2023-01-30T16:21:46;99082.03;;;5.45;66.88
63351;BME280;64988;51.058;17.040;2023-01-30T16:27:33;99082.19;;;5.55;66.39
63351;BME280;64988;51.058;17.040;2023-01-30T16:33:05;99084.34;;;5.50;66.30
63351;BME280;64988;51.058;17.040;2023-01-30T16:38:42;99088.50;;;5.54;66.80
63351;BME280;64988;51.058;17.040;2023-01-30T16:44:25;99089.22;;;5.56;66.37
63351;BME280;64988;51.058;17.040;2023-01-30T16:49:53;99088.63;;;5.63;66.08
63351;BME280;64988;51.058;17.040;2023-01-30T16:55:24;99080.13;;;5.69;65.73
63351;BME280;64988;51.058;17.040;2023-01-30T17:00:52;99079.41;;;5.78;65.26
63351;BME280;64988;51.058;17.040;2023-01-30T17:06:29;99068.81;;;5.77;65.42
63351;BME280;64988;51.058;17.040;2023-01-30T17:12:00;99077.72;;;5.77;65.18
63351;BME280;64988;51.058;17.040;2023-01-30T17:17:28;99048.88;;;5.81;64.86
63351;BME280;64988;51.058;17.040;2023-01-30T17:23:02;99070.16;;;5.82;64.96
63351;BME280;64988;51.058;17.040;2023-01-30T17:28:30;99078.19;;;5.82;64.68
63351;BME280;64988;51.058;17.040;2023-01-30T17:33:57;99078.81;;;5.75;67.51
63351;BME280;64988;51.058;17.040;2023-01-30T17:39:25;99088.50;;;5.43;71.14
63351;BME280;64988;51.058;17.040;2023-01-30T17:44:52;99097.72;;;5.39;72.68
63351;BME280;64988;51.058;17.040;2023-01-30T17:50:20;99104.59;;;5.19;73.55
63351;BME280;64988;51.058;17.040;2023-01-30T17:55:48;99113.47;;;5.19;73.74
63351;BME280;64988;51.058;17.040;2023-01-30T18:01:16;99096.63;;;5.06;73.47
63351;BME280;64988;51.058;17.040;2023-01-30T18:06:52;99116.59;;;5.13;73.38
63351;BME280;64988;51.058;17.040;2023-01-30T18:12:20;99132.59;;;5.02;73.83
63351;BME280;64988;51.058;17.040;2023-01-30T18:17:48;99165.13;;;4.96;74.98
63351;BME280;64988;51.058;17.040;2023-01-30T18:23:16;99163.47;;;4.83;76.30
63351;BME280;64988;51.058;17.040;2023-01-30T18:28:44;99156.75;;;4.77;75.88
63351;BME280;64988;51.058;17.040;2023-01-30T18:34:13;99177.63;;;4.72;75.96
63351;BME280;64988;51.058;17.040;2023-01-30T18:39:41;99176.66;;;4.73;76.00
63351;BME280;64988;51.058;17.040;2023-01-30T18:45:09;99184.06;;;4.57;76.12
63351;BME280;64988;51.058;17.040;2023-01-30T18:50:35;99187.16;;;4.63;76.71
63351;BME280;64988;51.058;17.040;2023-01-30T18:56:05;99196.03;;;4.64;76.32
63351;BME280;64988;51.058;17.040;2023-01-30T19:01:36;99194.31;;;4.63;76.87
63351;BME280;64988;51.058;17.040;2023-01-30T19:07:06;99204.50;;;4.58;76.85
63351;BME280;64988;51.058;17.040;2023-01-30T19:12:36;99206.75;;;4.51;77.67
63351;BME280;64988;51.058;17.040;2023-01-30T19:18:26;99229.84;;;4.52;77.54
63351;BME280;64988;51.058;17.040;2023-01-30T19:23:57;99222.56;;;4.54;77.25
63351;BME280;64988;51.058;17.040;2023-01-30T19:29:24;99228.84;;;4.66;76.94
63351;BME280;64988;51.058;17.040;2023-01-30T19:34:54;99234.72;;;4.71;76.56
63351;BME280;64988;51.058;17.040;2023-01-30T19:40:25;99236.63;;;4.69;76.21
63351;BME280;64988;51.058;17.040;2023-01-30T19:45:58;99223.22;;;4.58;76.20
63351;BME280;64988;51.058;17.040;2023-01-30T19:51:31;99242.56;;;4.49;76.64
63351;BME280;64988;51.058;17.040;2023-01-30T19:57:00;99261.91;;;4.65;76.53
63351;BME280;64988;51.058;17.040;2023-01-30T20:02:28;99253.88;;;4.65;77.07
63351;BME280;64988;51.058;17.040;2023-01-30T20:07:58;99253.47;;;4.58;79.28
63351;BME280;64988;51.058;17.040;2023-01-30T20:13:26;99254.94;;;4.50;79.34
63351;BME280;64988;51.058;17.040;2023-01-30T20:19:00;99257.19;;;4.31;79.57
63351;BME280;64988;51.058;17.040;2023-01-30T20:24:28;99265.34;;;4.29;79.23
63351;BME280;64988;51.058;17.040;2023-01-30T20:29:56;99280.06;;;4.22;79.76
63351;BME280;64988;51.058;17.040;2023-01-30T20:35:23;99297.69;;;4.12;81.06
63351;BME280;64988;51.058;17.040;2023-01-30T20:40:50;99298.84;;;4.08;81.26
63351;BME280;64988;51.058;17.040;2023-01-30T20:46:23;99294.78;;;4.02;81.39
63351;BME280;64988;51.058;17.040;2023-01-30T20:51:51;99301.41;;;3.97;82.02
63351;BME280;64988;51.058;17.040;2023-01-30T20:57:19;99314.41;;;4.01;82.04
63351;BME280;64988;51.058;17.040;2023-01-30T21:02:49;99308.75;;;3.93;82.30
63351;BME280;64988;51.058;17.040;2023-01-30T21:08:18;99320.19;;;3.95;82.11
63351;BME280;64988;51.058;17.040;2023-01-30T21:13:48;99308.44;;;4.10;81.78
63351;BME280;64988;51.058;17.040;2023-01-30T21:19:16;99324.91;;;4.17;81.68
63351;BME280;64988;51.058;17.040;2023-01-30T21:24:44;99325.78;;;4.30;81.30
63351;BME280;64988;51.058;17.040;2023-01-30T21:30:11;99349.31;;;4.38;80.76
63351;BME280;64988;51.058;17.040;2023-01-30T21:35:39;99354.66;;;4.38;80.39
63351;BME280;64988;51.058;17.040;2023-01-30T21:41:08;99367.91;;;4.39;80.03
63351;BME280;64988;51.058;17.040;2023-01-30T21:46:59;99370.88;;;4.35;79.74
63351;BME280;64988;51.058;17.040;2023-01-30T21:52:26;99383.19;;;4.37;79.51
63351;BME280;64988;51.058;17.040;2023-01-30T21:57:54;99400.28;;;4.35;79.54
63351;BME280;64988;51.058;17.040;2023-01-30T22:03:25;99408.09;;;4.50;79.07
63351;BME280;64988;51.058;17.040;2023-01-30T22:08:56;99438.13;;;4.54;78.70
63351;BME280;64988;51.058;17.040;2023-01-30T22:14:24;99431.94;;;4.53;78.71
63351;BME280;64988;51.058;17.040;2023-01-30T22:19:51;99446.91;;;4.56;78.04
63351;BME280;64988;51.058;17.040;2023-01-30T22:25:18;99454.38;;;4.51;77.33
63351;BME280;64988;51.058;17.040;2023-01-30T22:30:46;99462.25;;;4.40;77.74
63351;BME280;64988;51.058;17.040;2023-01-30T22:36:14;99466.81;;;4.25;78.19
63351;BME280;64988;51.058;17.040;2023-01-30T22:41:42;99463.72;;;4.04;78.36
63351;BME280;64988;51.058;17.040;2023-01-30T22:47:09;99476.34;;;4.02;77.72
63351;BME280;64988;51.058;17.040;2023-01-30T22:52:37;99474.97;;;4.09;77.79
63351;BME280;64988;51.058;17.040;2023-01-30T22:58:04;99480.13;;;4.12;77.52
63351;BME280;64988;51.058;17.040;2023-01-30T23:03:32;99491.13;;;4.20;77.70
63351;BME280;64988;51.058;17.040;2023-01-30T23:09:00;99495.91;;;4.30;77.93
63351;BME280;64988;51.058;17.040;2023-01-30T23:14:28;99495.78;;;4.31;78.37
63351;BME280;64988;51.058;17.040;2023-01-30T23:19:56;99497.19;;;4.37;78.52
63351;BME280;64988;51.058;17.040;2023-01-30T23:25:23;99505.34;;;4.48;78.31
63351;BME280;64988;51.058;17.040;2023-01-30T23:30:50;99497.06;;;4.52;77.60
63351;BME280;64988;51.058;17.040;2023-01-30T23:36:17;99508.16;;;4.59;77.38
63351;BME280;64988;51.058;17.040;2023-01-30T23:41:44;99524.00;;;4.62;76.51
63351;BME280;64988;51.058;17.040;2023-01-30T23:47:11;99515.78;;;4.65;76.06
63351;BME280;64988;51.058;17.040;2023-01-30T23:52:42;99525.19;;;4.70;75.24
63351;BME280;64988;51.058;17.040;2023-01-30T23:58:09;99531.84;;;4.78;74.95
